sensor_id;sensor_type;location;lat;lon;timestamp;P1;durP1;ratioP1;P2;durP2;ratioP2
3865;SDS011;1948;53.250;10.412;2023-04-23T00:01:19;4.63;;;4.30;;
3865;SDS011;1948;53.250;10.412;2023-04-23T00:03:47;4.80;;;4.40;;
3865;SDS011;1948;53.250;10.412;2023-04-23T00:06:18;4.70;;;4.27;;
3865;SDS011;1948;53.250;10.412;2023-04-23T00:08:47;4.60;;;4.20;;
3865;SDS011;1948;53.250;10.412;2023-04-23T00:11:20;5.00;;;4.70;;
3865;SDS011;1948;53.250;10.412;2023-04-23T00:13:52;4.77;;;4.53;;
3865;SDS011;1948;53.250;10.412;2023-04-23T00:16:22;4.83;;;4.27;;
3865;SDS011;1948;53.250;10.412;2023-04-23T00:18:50;4.37;;;4.17;;
3865;SDS011;1948;53.250;10.412;2023-04-23T00:21:16;4.53;;;4.33;;
3865;SDS011;1948;53.250;10.412;2023-04-23T00:23:43;10.47;;;4.73;;
3865;SDS011;1948;53.250;10.412;2023-04-23T00:26:13;6.10;;;5.60;;
3865;SDS011;1948;53.250;10.412;2023-04-23T00:28:39;6.07;;;4.70;;
3865;SDS011;1948;53.250;10.412;2023-04-23T00:31:09;5.03;;;4.57;;
3865;SDS011;1948;53.250;10.412;2023-04-23T00:33:38;4.67;;;4.57;;
3865;SDS011;1948;53.250;10.412;2023-04-23T00:36:05;4.97;;;4.67;;
3865;SDS011;1948;53.250;10.412;2023-04-23T00:38:32;8.57;;;4.43;;
3865;SDS011;1948;53.250;10.412;2023-04-23T00:40:59;4.27;;;4.10;;
3865;SDS011;1948;53.250;10.412;2023-04-23T00:43:26;5.80;;;4.93;;
3865;SDS011;1948;53.250;10.412;2023-04-23T00:45:53;5.70;;;4.93;;
3865;SDS011;1948;53.250;10.412;2023-04-23T00:48:21;4.60;;;4.43;;
3865;SDS011;1948;53.250;10.412;2023-04-23T00:50:48;4.80;;;4.60;;
3865;SDS011;1948;53.250;10.412;2023-04-23T00:53:17;4.70;;;4.50;;
3865;SDS011;1948;53.250;10.412;2023-04-23T00:55:44;5.70;;;5.40;;
3865;SDS011;1948;53.250;10.412;2023-04-23T00:58:11;5.77;;;5.37;;
3865;SDS011;1948;53.250;10.412;2023-04-23T01:00:41;6.83;;;5.10;;
3865;SDS011;1948;53.250;10.412;2023-04-23T01:03:12;4.93;;;4.70;;
3865;SDS011;1948;53.250;10.412;2023-04-23T01:05:42;5.60;;;5.17;;
3865;SDS011;1948;53.250;10.412;2023-04-23T01:08:13;5.40;;;5.00;;
3865;SDS011;1948;53.250;10.412;2023-04-23T01:10:45;5.90;;;5.50;;
3865;SDS011;1948;53.250;10.412;2023-04-23T01:13:13;5.30;;;5.00;;
3865;SDS011;1948;53.250;10.412;2023-04-23T01:15:43;6.30;;;6.00;;
3865;SDS011;1948;53.250;10.412;2023-04-23T01:18:10;5.90;;;5.50;;
3865;SDS011;1948;53.250;10.412;2023-04-23T01:20:38;6.70;;;6.30;;
3865;SDS011;1948;53.250;10.412;2023-04-23T01:23:08;6.70;;;6.30;;
3865;SDS011;1948;53.250;10.412;2023-04-23T01:25:35;6.60;;;6.30;;
3865;SDS011;1948;53.250;10.412;2023-04-23T01:28:02;7.30;;;6.80;;
3865;SDS011;1948;53.250;10.412;2023-04-23T01:30:34;7.40;;;6.90;;
3865;SDS011;1948;53.250;10.412;2023-04-23T01:33:02;8.30;;;7.50;;
3865;SDS011;1948;53.250;10.412;2023-04-23T01:35:31;7.97;;;7.03;;
3865;SDS011;1948;53.250;10.412;2023-04-23T01:38:01;7.57;;;6.80;;
3865;SDS011;1948;53.250;10.412;2023-04-23T01:40:29;8.30;;;6.90;;
3865;SDS011;1948;53.250;10.412;2023-04-23T01:42:56;7.97;;;7.47;;
3865;SDS011;1948;53.250;10.412;2023-04-23T01:45:26;7.53;;;6.93;;
3865;SDS011;1948;53.250;10.412;2023-04-23T01:47:56;7.53;;;6.90;;
3865;SDS011;1948;53.250;10.412;2023-04-23T01:50:26;7.00;;;6.60;;
3865;SDS011;1948;53.250;10.412;2023-04-23T01:52:57;6.87;;;6.37;;
3865;SDS011;1948;53.250;10.412;2023-04-23T01:55:23;7.20;;;6.73;;
3865;SDS011;1948;53.250;10.412;2023-04-23T01:57:51;7.37;;;6.87;;
3865;SDS011;1948;53.250;10.412;2023-04-23T02:00:17;7.10;;;6.40;;
3865;SDS011;1948;53.250;10.412;2023-04-23T02:02:45;8.80;;;8.10;;
3865;SDS011;1948;53.250;10.412;2023-04-23T02:05:18;8.63;;;7.80;;
3865;SDS011;1948;53.250;10.412;2023-04-23T02:07:47;8.33;;;7.70;;
3865;SDS011;1948;53.250;10.412;2023-04-23T02:10:15;10.07;;;7.40;;
3865;SDS011;1948;53.250;10.412;2023-04-23T02:12:44;8.10;;;7.67;;
3865;SDS011;1948;53.250;10.412;2023-04-23T02:15:12;9.23;;;8.50;;
3865;SDS011;1948;53.250;10.412;2023-04-23T02:17:42;10.70;;;9.60;;
3865;SDS011;1948;53.250;10.412;2023-04-23T02:20:09;9.70;;;8.93;;
3865;SDS011;1948;53.250;10.412;2023-04-23T02:22:39;10.27;;;9.37;;
3865;SDS011;1948;53.250;10.412;2023-04-23T02:25:07;10.50;;;9.50;;
3865;SDS011;1948;53.250;10.412;2023-04-23T02:27:42;9.90;;;9.00;;
3865;SDS011;1948;53.250;10.412;2023-04-23T02:30:10;9.67;;;8.87;;
3865;SDS011;1948;53.250;10.412;2023-04-23T02:32:40;13.43;;;9.47;;
3865;SDS011;1948;53.250;10.412;2023-04-23T02:35:08;10.10;;;9.20;;
3865;SDS011;1948;53.250;10.412;2023-04-23T02:37:36;9.93;;;9.13;;
3865;SDS011;1948;53.250;10.412;2023-04-23T02:40:03;9.70;;;8.83;;
3865;SDS011;1948;53.250;10.412;2023-04-23T02:42:33;9.17;;;8.43;;
3865;SDS011;1948;53.250;10.412;2023-04-23T02:45:00;10.23;;;9.23;;
3865;SDS011;1948;53.250;10.412;2023-04-23T02:47:29;10.33;;;9.50;;
3865;SDS011;1948;53.250;10.412;2023-04-23T02:49:58;9.80;;;8.93;;
3865;SDS011;1948;53.250;10.412;2023-04-23T02:52:31;9.90;;;9.07;;
3865;SDS011;1948;53.250;10.412;2023-04-23T02:54:59;9.50;;;8.83;;
3865;SDS011;1948;53.250;10.412;2023-04-23T02:57:27;12.43;;;8.93;;
3865;SDS011;1948;53.250;10.412;2023-04-23T02:59:56;11.40;;;9.63;;
3865;SDS011;1948;53.250;10.412;2023-04-23T03:02:23;10.40;;;9.60;;
3865;SDS011;1948;53.250;10.412;2023-04-23T03:04:50;11.70;;;9.53;;
3865;SDS011;1948;53.250;10.412;2023-04-23T03:07:17;11.10;;;10.10;;
3865;SDS011;1948;53.250;10.412;2023-04-23T03:09:44;9.77;;;9.07;;
3865;SDS011;1948;53.250;10.412;2023-04-23T03:12:11;11.40;;;10.37;;
3865;SDS011;1948;53.250;10.412;2023-04-23T03:14:41;11.33;;;10.17;;
3865;SDS011;1948;53.250;10.412;2023-04-23T03:17:11;13.87;;;9.73;;
3865;SDS011;1948;53.250;10.412;2023-04-23T03:19:40;12.40;;;11.03;;
3865;SDS011;1948;53.250;10.412;2023-04-23T03:22:07;11.03;;;9.93;;
3865;SDS011;1948;53.250;10.412;2023-04-23T03:24:38;13.60;;;12.30;;
3865;SDS011;1948;53.250;10.412;2023-04-23T03:27:05;12.17;;;10.97;;
3865;SDS011;1948;53.250;10.412;2023-04-23T03:29:32;14.40;;;11.07;;
3865;SDS011;1948;53.250;10.412;2023-04-23T03:32:02;14.80;;;13.40;;
3865;SDS011;1948;53.250;10.412;2023-04-23T03:34:32;20.07;;;17.07;;
3865;SDS011;1948;53.250;10.412;2023-04-23T03:36:58;22.57;;;18.47;;
3865;SDS011;1948;53.250;10.412;2023-04-23T03:39:27;26.37;;;19.40;;
3865;SDS011;1948;53.250;10.412;2023-04-23T03:41:54;21.53;;;17.70;;
3865;SDS011;1948;53.250;10.412;2023-04-23T03:44:23;23.00;;;19.20;;
3865;SDS011;1948;53.250;10.412;2023-04-23T03:46:50;25.60;;;20.63;;
3865;SDS011;1948;53.250;10.412;2023-04-23T03:49:17;28.00;;;20.37;;
3865;SDS011;1948;53.250;10.412;2023-04-23T03:51:44;25.07;;;19.40;;
3865;SDS011;1948;53.250;10.412;2023-04-23T03:54:11;27.00;;;18.93;;
3865;SDS011;1948;53.250;10.412;2023-04-23T03:56:38;24.70;;;19.27;;
3865;SDS011;1948;53.250;10.412;2023-04-23T03:59:05;29.80;;;20.40;;
3865;SDS011;1948;53.250;10.412;2023-04-23T04:01:34;28.77;;;21.00;;
3865;SDS011;1948;53.250;10.412;2023-04-23T04:04:02;26.00;;;20.47;;
3865;SDS011;1948;53.250;10.412;2023-04-23T04:06:35;28.67;;;21.20;;
3865;SDS011;1948;53.250;10.412;2023-04-23T04:09:02;30.13;;;20.20;;
3865;SDS011;1948;53.250;10.412;2023-04-23T04:11:31;28.60;;;21.90;;
3865;SDS011;1948;53.250;10.412;2023-04-23T04:14:01;26.20;;;21.43;;
3865;SDS011;1948;53.250;10.412;2023-04-23T04:16:28;29.20;;;22.40;;
3865;SDS011;1948;53.250;10.412;2023-04-23T04:18:55;27.33;;;22.37;;
3865;SDS011;1948;53.250;10.412;2023-04-23T04:21:22;32.20;;;22.57;;
3865;SDS011;1948;53.250;10.412;2023-04-23T04:23:49;28.87;;;22.43;;
3865;SDS011;1948;53.250;10.412;2023-04-23T04:26:16;29.93;;;23.27;;
3865;SDS011;1948;53.250;10.412;2023-04-23T04:28:43;30.30;;;24.33;;
3865;SDS011;1948;53.250;10.412;2023-04-23T04:31:10;33.53;;;24.93;;
3865;SDS011;1948;53.250;10.412;2023-04-23T04:33:41;28.60;;;23.53;;
3865;SDS011;1948;53.250;10.412;2023-04-23T04:36:08;30.87;;;24.03;;
3865;SDS011;1948;53.250;10.412;2023-04-23T04:38:35;30.50;;;24.20;;
3865;SDS011;1948;53.250;10.412;2023-04-23T04:41:05;32.73;;;22.67;;
3865;SDS011;1948;53.250;10.412;2023-04-23T04:43:32;30.17;;;24.03;;
3865;SDS011;1948;53.250;10.412;2023-04-23T04:45:59;32.80;;;24.33;;
3865;SDS011;1948;53.250;10.412;2023-04-23T04:48:27;28.43;;;22.90;;
3865;SDS011;1948;53.250;10.412;2023-04-23T04:50:53;35.30;;;23.50;;
3865;SDS011;1948;53.250;10.412;2023-04-23T04:53:20;32.23;;;25.03;;
3865;SDS011;1948;53.250;10.412;2023-04-23T04:55:50;37.93;;;24.10;;
3865;SDS011;1948;53.250;10.412;2023-04-23T04:58:19;35.03;;;25.60;;
3865;SDS011;1948;53.250;10.412;2023-04-23T05:00:48;33.07;;;25.40;;
3865;SDS011;1948;53.250;10.412;2023-04-23T05:03:18;36.07;;;26.07;;
3865;SDS011;1948;53.250;10.412;2023-04-23T05:05:46;35.27;;;25.43;;
3865;SDS011;1948;53.250;10.412;2023-04-23T05:08:13;39.13;;;27.10;;
3865;SDS011;1948;53.250;10.412;2023-04-23T05:10:44;37.67;;;26.00;;
3865;SDS011;1948;53.250;10.412;2023-04-23T05:13:11;37.70;;;27.50;;
3865;SDS011;1948;53.250;10.412;2023-04-23T05:15:38;34.70;;;25.50;;
3865;SDS011;1948;53.250;10.412;2023-04-23T05:18:08;41.97;;;26.07;;
3865;SDS011;1948;53.250;10.412;2023-04-23T05:20:36;35.27;;;24.93;;
3865;SDS011;1948;53.250;10.412;2023-04-23T05:23:06;34.73;;;25.00;;
3865;SDS011;1948;53.250;10.412;2023-04-23T05:25:35;40.23;;;24.30;;
3865;SDS011;1948;53.250;10.412;2023-04-23T05:28:02;38.50;;;25.03;;
3865;SDS011;1948;53.250;10.412;2023-04-23T05:30:29;31.63;;;23.47;;
3865;SDS011;1948;53.250;10.412;2023-04-23T05:32:58;34.27;;;22.40;;
3865;SDS011;1948;53.250;10.412;2023-04-23T05:35:25;32.37;;;23.93;;
3865;SDS011;1948;53.250;10.412;2023-04-23T05:37:57;34.60;;;23.00;;
3865;SDS011;1948;53.250;10.412;2023-04-23T05:40:24;30.67;;;22.37;;
3865;SDS011;1948;53.250;10.412;2023-04-23T05:42:53;32.93;;;24.33;;
3865;SDS011;1948;53.250;10.412;2023-04-23T05:45:25;34.97;;;23.53;;
3865;SDS011;1948;53.250;10.412;2023-04-23T05:47:53;34.73;;;23.70;;
3865;SDS011;1948;53.250;10.412;2023-04-23T05:50:22;30.13;;;23.20;;
3865;SDS011;1948;53.250;10.412;2023-04-23T05:52:49;36.63;;;22.70;;
3865;SDS011;1948;53.250;10.412;2023-04-23T05:55:16;32.50;;;24.20;;
3865;SDS011;1948;53.250;10.412;2023-04-23T05:57:46;34.73;;;22.73;;
3865;SDS011;1948;53.250;10.412;2023-04-23T06:00:16;31.93;;;23.80;;
3865;SDS011;1948;53.250;10.412;2023-04-23T06:02:43;32.50;;;23.47;;
3865;SDS011;1948;53.250;10.412;2023-04-23T06:05:14;24.90;;;20.53;;
3865;SDS011;1948;53.250;10.412;2023-04-23T06:07:42;28.60;;;20.10;;
3865;SDS011;1948;53.250;10.412;2023-04-23T06:10:09;28.33;;;20.77;;
3865;SDS011;1948;53.250;10.412;2023-04-23T06:12:36;23.57;;;19.00;;
3865;SDS011;1948;53.250;10.412;2023-04-23T06:15:23;29.40;;;20.40;;
3865;SDS011;1948;53.250;10.412;2023-04-23T06:17:54;24.53;;;18.73;;
3865;SDS011;1948;53.250;10.412;2023-04-23T06:20:21;31.30;;;18.00;;
3865;SDS011;1948;53.250;10.412;2023-04-23T06:22:51;24.60;;;18.53;;
3865;SDS011;1948;53.250;10.412;2023-04-23T06:25:20;20.43;;;17.23;;
3865;SDS011;1948;53.250;10.412;2023-04-23T06:27:48;24.03;;;16.93;;
3865;SDS011;1948;53.250;10.412;2023-04-23T06:30:17;21.03;;;15.80;;
3865;SDS011;1948;53.250;10.412;2023-04-23T06:32:44;22.73;;;16.20;;
3865;SDS011;1948;53.250;10.412;2023-04-23T06:35:14;25.77;;;16.03;;
3865;SDS011;1948;53.250;10.412;2023-04-23T06:37:40;17.80;;;15.37;;
3865;SDS011;1948;53.250;10.412;2023-04-23T06:40:11;22.13;;;15.80;;
3865;SDS011;1948;53.250;10.412;2023-04-23T06:42:41;21.63;;;15.57;;
3865;SDS011;1948;53.250;10.412;2023-04-23T06:45:08;35.00;;;15.30;;
3865;SDS011;1948;53.250;10.412;2023-04-23T06:47:38;17.57;;;14.80;;
3865;SDS011;1948;53.250;10.412;2023-04-23T06:50:07;20.77;;;14.67;;
3865;SDS011;1948;53.250;10.412;2023-04-23T06:52:34;21.37;;;12.93;;
3865;SDS011;1948;53.250;10.412;2023-04-23T06:55:04;14.67;;;11.17;;
3865;SDS011;1948;53.250;10.412;2023-04-23T06:57:32;11.50;;;10.40;;
3865;SDS011;1948;53.250;10.412;2023-04-23T07:00:01;13.20;;;9.83;;
3865;SDS011;1948;53.250;10.412;2023-04-23T07:02:28;9.90;;;8.90;;
3865;SDS011;1948;53.250;10.412;2023-04-23T07:04:55;9.23;;;7.90;;
3865;SDS011;1948;53.250;10.412;2023-04-23T07:07:22;13.30;;;8.97;;
3865;SDS011;1948;53.250;10.412;2023-04-23T07:09:50;9.00;;;7.90;;
3865;SDS011;1948;53.250;10.412;2023-04-23T07:12:20;8.43;;;7.63;;
3865;SDS011;1948;53.250;10.412;2023-04-23T07:14:50;8.80;;;8.00;;
3865;SDS011;1948;53.250;10.412;2023-04-23T07:17:20;15.67;;;8.30;;
3865;SDS011;1948;53.250;10.412;2023-04-23T07:19:49;9.30;;;8.60;;
3865;SDS011;1948;53.250;10.412;2023-04-23T07:22:18;8.40;;;7.70;;
3865;SDS011;1948;53.250;10.412;2023-04-23T07:24:45;19.17;;;9.30;;
3865;SDS011;1948;53.250;10.412;2023-04-23T07:27:17;10.40;;;8.70;;
3865;SDS011;1948;53.250;10.412;2023-04-23T07:29:44;11.20;;;9.17;;
3865;SDS011;1948;53.250;10.412;2023-04-23T07:32:11;10.60;;;8.83;;
3865;SDS011;1948;53.250;10.412;2023-04-23T07:34:38;11.30;;;9.13;;
3865;SDS011;1948;53.250;10.412;2023-04-23T07:37:08;8.60;;;7.87;;
3865;SDS011;1948;53.250;10.412;2023-04-23T07:39:38;9.80;;;8.10;;
3865;SDS011;1948;53.250;10.412;2023-04-23T07:42:09;15.43;;;8.90;;
3865;SDS011;1948;53.250;10.412;2023-04-23T07:44:36;12.97;;;8.40;;
3865;SDS011;1948;53.250;10.412;2023-04-23T07:47:03;14.20;;;7.80;;
3865;SDS011;1948;53.250;10.412;2023-04-23T07:49:30;8.60;;;7.60;;
3865;SDS011;1948;53.250;10.412;2023-04-23T07:51:57;9.17;;;7.73;;
3865;SDS011;1948;53.250;10.412;2023-04-23T07:54:24;7.67;;;6.77;;
3865;SDS011;1948;53.250;10.412;2023-04-23T07:56:54;7.97;;;7.23;;
3865;SDS011;1948;53.250;10.412;2023-04-23T07:59:23;8.70;;;7.90;;
3865;SDS011;1948;53.250;10.412;2023-04-23T08:01:50;9.13;;;8.33;;
3865;SDS011;1948;53.250;10.412;2023-04-23T08:04:19;12.83;;;7.87;;
3865;SDS011;1948;53.250;10.412;2023-04-23T08:06:47;8.23;;;7.53;;
3865;SDS011;1948;53.250;10.412;2023-04-23T08:09:13;12.50;;;8.37;;
3865;SDS011;1948;53.250;10.412;2023-04-23T08:11:43;8.80;;;7.90;;
3865;SDS011;1948;53.250;10.412;2023-04-23T08:14:10;11.23;;;9.63;;
3865;SDS011;1948;53.250;10.412;2023-04-23T08:16:37;11.10;;;9.20;;
3865;SDS011;1948;53.250;10.412;2023-04-23T08:19:04;15.90;;;10.23;;
3865;SDS011;1948;53.250;10.412;2023-04-23T08:21:32;12.80;;;10.70;;
3865;SDS011;1948;53.250;10.412;2023-04-23T08:23:59;13.13;;;11.13;;
3865;SDS011;1948;53.250;10.412;2023-04-23T08:26:28;15.33;;;11.13;;
3865;SDS011;1948;53.250;10.412;2023-04-23T08:28:55;14.53;;;11.47;;
3865;SDS011;1948;53.250;10.412;2023-04-23T08:31:23;12.97;;;10.70;;
3865;SDS011;1948;53.250;10.412;2023-04-23T08:33:53;19.20;;;11.63;;
3865;SDS011;1948;53.250;10.412;2023-04-23T08:36:20;12.90;;;11.80;;
3865;SDS011;1948;53.250;10.412;2023-04-23T08:38:51;18.83;;;12.60;;
3865;SDS011;1948;53.250;10.412;2023-04-23T08:41:18;18.10;;;11.20;;
3865;SDS011;1948;53.250;10.412;2023-04-23T08:44:24;14.23;;;11.57;;
3865;SDS011;1948;53.250;10.412;2023-04-23T08:46:43;14.80;;;11.40;;
3865;SDS011;1948;53.250;10.412;2023-04-23T08:49:12;13.03;;;11.73;;
3865;SDS011;1948;53.250;10.412;2023-04-23T08:52:28;14.27;;;11.50;;
3865;SDS011;1948;53.250;10.412;2023-04-23T08:54:58;13.27;;;11.90;;
3865;SDS011;1948;53.250;10.412;2023-04-23T08:57:30;13.83;;;12.13;;
3865;SDS011;1948;53.250;10.412;2023-04-23T08:59:59;19.63;;;13.13;;
3865;SDS011;1948;53.250;10.412;2023-04-23T09:02:33;13.43;;;12.13;;
3865;SDS011;1948;53.250;10.412;2023-04-23T09:05:03;11.27;;;10.27;;
3865;SDS011;1948;53.250;10.412;2023-04-23T09:07:30;13.47;;;11.73;;
3865;SDS011;1948;53.250;10.412;2023-04-23T09:10:01;12.17;;;10.97;;
3865;SDS011;1948;53.250;10.412;2023-04-23T09:12:34;11.00;;;9.90;;
3865;SDS011;1948;53.250;10.412;2023-04-23T09:15:02;17.43;;;11.43;;
3865;SDS011;1948;53.250;10.412;2023-04-23T09:17:40;11.97;;;10.83;;
3865;SDS011;1948;53.250;10.412;2023-04-23T09:20:12;12.63;;;11.37;;
3865;SDS011;1948;53.250;10.412;2023-04-23T09:25:14;22.43;;;12.23;;
3865;SDS011;1948;53.250;10.412;2023-04-23T09:27:43;13.43;;;10.93;;
3865;SDS011;1948;53.250;10.412;2023-04-23T09:30:12;11.60;;;10.60;;
3865;SDS011;1948;53.250;10.412;2023-04-23T09:32:40;10.83;;;10.03;;
3865;SDS011;1948;53.250;10.412;2023-04-23T09:35:15;13.07;;;11.57;;
3865;SDS011;1948;53.250;10.412;2023-04-23T09:37:46;12.57;;;11.43;;
3865;SDS011;1948;53.250;10.412;2023-04-23T09:40:18;11.77;;;10.60;;
3865;SDS011;1948;53.250;10.412;2023-04-23T09:42:49;12.13;;;10.93;;
3865;SDS011;1948;53.250;10.412;2023-04-23T09:45:21;12.27;;;10.53;;
3865;SDS011;1948;53.250;10.412;2023-04-23T09:47:56;10.50;;;9.60;;
3865;SDS011;1948;53.250;10.412;2023-04-23T09:53:02;10.50;;;9.60;;
3865;SDS011;1948;53.250;10.412;2023-04-23T09:55:31;10.97;;;9.97;;
3865;SDS011;1948;53.250;10.412;2023-04-23T09:58:04;14.17;;;11.07;;
3865;SDS011;1948;53.250;10.412;2023-04-23T10:00:38;12.53;;;11.37;;
3865;SDS011;1948;53.250;10.412;2023-04-23T10:03:08;11.63;;;9.90;;
3865;SDS011;1948;53.250;10.412;2023-04-23T10:05:40;12.30;;;11.10;;
3865;SDS011;1948;53.250;10.412;2023-04-23T10:08:11;10.73;;;9.83;;
3865;SDS011;1948;53.250;10.412;2023-04-23T10:10:39;10.07;;;9.27;;
3865;SDS011;1948;53.250;10.412;2023-04-23T10:13:29;9.83;;;9.03;;
3865;SDS011;1948;53.250;10.412;2023-04-23T10:15:56;12.70;;;11.43;;
3865;SDS011;1948;53.250;10.412;2023-04-23T10:18:46;11.73;;;10.70;;
3865;SDS011;1948;53.250;10.412;2023-04-23T10:21:13;11.90;;;10.70;;
3865;SDS011;1948;53.250;10.412;2023-04-23T10:23:45;11.57;;;10.53;;
3865;SDS011;1948;53.250;10.412;2023-04-23T10:26:15;12.67;;;11.30;;
3865;SDS011;1948;53.250;10.412;2023-04-23T10:28:45;13.10;;;10.77;;
3865;SDS011;1948;53.250;10.412;2023-04-23T10:31:14;12.80;;;11.60;;
3865;SDS011;1948;53.250;10.412;2023-04-23T10:33:43;11.03;;;10.03;;
3865;SDS011;1948;53.250;10.412;2023-04-23T10:36:24;11.20;;;10.30;;
3865;SDS011;1948;53.250;10.412;2023-04-23T10:38:53;11.60;;;10.60;;
3865;SDS011;1948;53.250;10.412;2023-04-23T10:41:26;12.37;;;10.60;;
3865;SDS011;1948;53.250;10.412;2023-04-23T10:44:02;9.57;;;8.87;;
3865;SDS011;1948;53.250;10.412;2023-04-23T10:46:31;12.23;;;10.83;;
3865;SDS011;1948;53.250;10.412;2023-04-23T10:49:21;9.70;;;9.00;;
3865;SDS011;1948;53.250;10.412;2023-04-23T10:54:48;10.30;;;9.50;;
3865;SDS011;1948;53.250;10.412;2023-04-23T10:57:22;8.97;;;8.37;;
3865;SDS011;1948;53.250;10.412;2023-04-23T10:59:55;9.73;;;9.00;;
3865;SDS011;1948;53.250;10.412;2023-04-23T11:02:26;9.37;;;8.43;;
3865;SDS011;1948;53.250;10.412;2023-04-23T11:05:11;8.30;;;7.67;;
3865;SDS011;1948;53.250;10.412;2023-04-23T11:07:38;7.00;;;6.60;;
3865;SDS011;1948;53.250;10.412;2023-04-23T11:10:12;6.60;;;5.70;;
3865;SDS011;1948;53.250;10.412;2023-04-23T11:12:40;5.97;;;5.50;;
3865;SDS011;1948;53.250;10.412;2023-04-23T11:15:10;6.13;;;5.70;;
3865;SDS011;1948;53.250;10.412;2023-04-23T11:20:19;5.70;;;5.30;;
3865;SDS011;1948;53.250;10.412;2023-04-23T11:22:49;7.03;;;5.97;;
3865;SDS011;1948;53.250;10.412;2023-04-23T11:25:22;6.77;;;4.90;;
3865;SDS011;1948;53.250;10.412;2023-04-23T11:27:52;4.63;;;4.43;;
3865;SDS011;1948;53.250;10.412;2023-04-23T11:30:26;5.20;;;5.00;;
3865;SDS011;1948;53.250;10.412;2023-04-23T11:32:55;6.07;;;4.97;;
3865;SDS011;1948;53.250;10.412;2023-04-23T11:35:25;4.37;;;4.07;;
3865;SDS011;1948;53.250;10.412;2023-04-23T11:37:57;4.30;;;4.20;;
3865;SDS011;1948;53.250;10.412;2023-04-23T11:40:24;5.93;;;5.53;;
3865;SDS011;1948;53.250;10.412;2023-04-23T11:42:52;6.27;;;5.87;;
3865;SDS011;1948;53.250;10.412;2023-04-23T11:45:24;5.70;;;4.90;;
3865;SDS011;1948;53.250;10.412;2023-04-23T11:47:56;4.73;;;4.53;;
3865;SDS011;1948;53.250;10.412;2023-04-23T11:53:05;4.97;;;4.67;;
3865;SDS011;1948;53.250;10.412;2023-04-23T11:55:36;5.40;;;5.10;;
3865;SDS011;1948;53.250;10.412;2023-04-23T11:58:09;5.87;;;5.40;;
3865;SDS011;1948;53.250;10.412;2023-04-23T12:00:36;5.23;;;4.87;;
3865;SDS011;1948;53.250;10.412;2023-04-23T12:03:08;5.17;;;4.87;;
3865;SDS011;1948;53.250;10.412;2023-04-23T12:05:38;4.20;;;4.00;;
3865;SDS011;1948;53.250;10.412;2023-04-23T12:13:21;6.70;;;5.07;;
3865;SDS011;1948;53.250;10.412;2023-04-23T12:15:55;4.93;;;4.73;;
3865;SDS011;1948;53.250;10.412;2023-04-23T12:18:30;5.60;;;5.30;;
3865;SDS011;1948;53.250;10.412;2023-04-23T12:21:04;4.90;;;4.60;;
3865;SDS011;1948;53.250;10.412;2023-04-23T12:23:32;4.60;;;4.40;;
3865;SDS011;1948;53.250;10.412;2023-04-23T12:26:03;4.70;;;4.30;;
3865;SDS011;1948;53.250;10.412;2023-04-23T12:28:50;3.87;;;3.50;;
3865;SDS011;1948;53.250;10.412;2023-04-23T12:31:25;5.33;;;4.40;;
3865;SDS011;1948;53.250;10.412;2023-04-23T12:34:00;3.97;;;3.83;;
3865;SDS011;1948;53.250;10.412;2023-04-23T12:36:32;4.07;;;3.93;;
3865;SDS011;1948;53.250;10.412;2023-04-23T12:39:19;4.40;;;4.10;;
3865;SDS011;1948;53.250;10.412;2023-04-23T12:44:34;4.20;;;4.10;;
3865;SDS011;1948;53.250;10.412;2023-04-23T12:47:06;3.20;;;3.17;;
3865;SDS011;1948;53.250;10.412;2023-04-23T12:49:39;3.10;;;2.90;;
3865;SDS011;1948;53.250;10.412;2023-04-23T12:52:09;3.17;;;3.00;;
3865;SDS011;1948;53.250;10.412;2023-04-23T12:54:39;3.00;;;3.00;;
3865;SDS011;1948;53.250;10.412;2023-04-23T12:57:10;3.00;;;2.97;;
3865;SDS011;1948;53.250;10.412;2023-04-23T12:59:39;7.93;;;2.77;;
3865;SDS011;1948;53.250;10.412;2023-04-23T13:02:07;5.80;;;3.20;;
3865;SDS011;1948;53.250;10.412;2023-04-23T13:04:35;3.43;;;3.20;;
3865;SDS011;1948;53.250;10.412;2023-04-23T13:07:03;3.87;;;3.40;;
3865;SDS011;1948;53.250;10.412;2023-04-23T13:09:33;3.10;;;3.00;;
3865;SDS011;1948;53.250;10.412;2023-04-23T13:12:02;2.80;;;2.70;;
3865;SDS011;1948;53.250;10.412;2023-04-23T13:14:29;3.23;;;3.03;;
3865;SDS011;1948;53.250;10.412;2023-04-23T13:16:58;2.67;;;2.57;;
3865;SDS011;1948;53.250;10.412;2023-04-23T13:19:25;6.63;;;2.90;;
3865;SDS011;1948;53.250;10.412;2023-04-23T13:21:55;3.67;;;3.47;;
3865;SDS011;1948;53.250;10.412;2023-04-23T13:24:26;3.83;;;3.70;;
3865;SDS011;1948;53.250;10.412;2023-04-23T13:26:56;13.77;;;9.87;;
3865;SDS011;1948;53.250;10.412;2023-04-23T13:29:23;2.90;;;2.90;;
3865;SDS011;1948;53.250;10.412;2023-04-23T13:31:54;3.70;;;3.43;;
3865;SDS011;1948;53.250;10.412;2023-04-23T13:34:22;7.83;;;3.47;;
3865;SDS011;1948;53.250;10.412;2023-04-23T13:36:49;7.47;;;3.30;;
3865;SDS011;1948;53.250;10.412;2023-04-23T13:39:16;3.47;;;3.40;;
3865;SDS011;1948;53.250;10.412;2023-04-23T13:41:46;3.10;;;3.00;;
3865;SDS011;1948;53.250;10.412;2023-04-23T13:44:34;12.73;;;3.50;;
3865;SDS011;1948;53.250;10.412;2023-04-23T13:47:01;5.00;;;3.77;;
3865;SDS011;1948;53.250;10.412;2023-04-23T13:49:28;3.33;;;3.23;;
3865;SDS011;1948;53.250;10.412;2023-04-23T13:51:57;3.00;;;2.70;;
3865;SDS011;1948;53.250;10.412;2023-04-23T13:54:29;3.27;;;2.97;;
3865;SDS011;1948;53.250;10.412;2023-04-23T13:56:56;3.73;;;3.43;;
3865;SDS011;1948;53.250;10.412;2023-04-23T13:59:24;3.10;;;2.90;;
3865;SDS011;1948;53.250;10.412;2023-04-23T14:01:51;9.37;;;3.07;;
3865;SDS011;1948;53.250;10.412;2023-04-23T14:04:19;4.50;;;3.23;;
3865;SDS011;1948;53.250;10.412;2023-04-23T14:06:49;3.03;;;2.93;;
3865;SDS011;1948;53.250;10.412;2023-04-23T14:09:19;3.07;;;2.87;;
3865;SDS011;1948;53.250;10.412;2023-04-23T14:11:50;3.80;;;3.60;;
3865;SDS011;1948;53.250;10.412;2023-04-23T14:14:17;2.83;;;2.73;;
3865;SDS011;1948;53.250;10.412;2023-04-23T14:16:44;2.57;;;2.50;;
3865;SDS011;1948;53.250;10.412;2023-04-23T14:19:13;3.27;;;3.17;;
3865;SDS011;1948;53.250;10.412;2023-04-23T14:21:40;2.73;;;2.73;;
3865;SDS011;1948;53.250;10.412;2023-04-23T14:24:08;3.00;;;2.90;;
3865;SDS011;1948;53.250;10.412;2023-04-23T14:26:54;3.30;;;3.20;;
3865;SDS011;1948;53.250;10.412;2023-04-23T14:32:30;4.37;;;3.00;;
3865;SDS011;1948;53.250;10.412;2023-04-23T14:34:59;3.43;;;3.33;;
3865;SDS011;1948;53.250;10.412;2023-04-23T14:37:30;3.03;;;2.83;;
3865;SDS011;1948;53.250;10.412;2023-04-23T14:39:59;4.10;;;3.20;;
3865;SDS011;1948;53.250;10.412;2023-04-23T14:42:26;5.83;;;3.27;;
3865;SDS011;1948;53.250;10.412;2023-04-23T14:44:57;2.63;;;2.60;;
3865;SDS011;1948;53.250;10.412;2023-04-23T14:47:27;2.67;;;2.67;;
3865;SDS011;1948;53.250;10.412;2023-04-23T14:49:54;3.37;;;3.17;;
3865;SDS011;1948;53.250;10.412;2023-04-23T14:52:26;3.53;;;2.97;;
3865;SDS011;1948;53.250;10.412;2023-04-23T14:54:53;4.43;;;4.03;;
3865;SDS011;1948;53.250;10.412;2023-04-23T14:57:21;21.27;;;3.80;;
3865;SDS011;1948;53.250;10.412;2023-04-23T14:59:48;3.10;;;2.90;;
3865;SDS011;1948;53.250;10.412;2023-04-23T15:02:17;2.80;;;2.60;;
3865;SDS011;1948;53.250;10.412;2023-04-23T15:04:44;3.20;;;3.10;;
3865;SDS011;1948;53.250;10.412;2023-04-23T15:07:11;3.20;;;3.10;;
3865;SDS011;1948;53.250;10.412;2023-04-23T15:09:41;4.80;;;4.50;;
3865;SDS011;1948;53.250;10.412;2023-04-23T15:12:23;6.73;;;3.80;;
3865;SDS011;1948;53.250;10.412;2023-04-23T15:18:08;3.57;;;3.43;;
3865;SDS011;1948;53.250;10.412;2023-04-23T15:20:39;3.63;;;3.53;;
3865;SDS011;1948;53.250;10.412;2023-04-23T15:23:11;4.00;;;3.80;;
3865;SDS011;1948;53.250;10.412;2023-04-23T15:25:38;3.57;;;3.40;;
3865;SDS011;1948;53.250;10.412;2023-04-23T15:28:08;3.90;;;3.60;;
3865;SDS011;1948;53.250;10.412;2023-04-23T15:30:35;3.60;;;3.50;;
3865;SDS011;1948;53.250;10.412;2023-04-23T15:33:02;3.37;;;3.27;;